KLFT

Lafayette Regional / Paul Fournet Field Airport

Lafayette, Louisiana, USA
METAR KLFT 211453Z VRB05KT 10SM CLR 05/00 A3037 RMK AO2 SLP285 T00500000 51019 $
Observed Flight Rules
Jan-21 @ 14:53 UTC (an hour ago) Visual Flight Rules
Wind Visibility Clouds
Variable at 5 knots 10 miles
  • Clear skies
Temperatures Readings
Current 5°C / 41°F
Dewpoint 0°C / 32°F
Humidity 70%
Altimeter 30.37" Hg
Pressure 1028.5 hPa
Elevation 11
METAR KLFT 211453Z VRB05KT 10SM CLR 05/00 A3037 RMK AO2 SLP285 T00500000 51019 $
Observed Flight Rules
Jan-21 @ 14:53 UTC
(an hour ago)
VFR
Wind Visibility
Variable at 5 knots 10 miles
Clouds
  • Clear skies
Temperature Dewpoint
5°C / 41°F 0°C / 32°F
Humidity Altimeter Pressure
70% 30.37" Hg 1028.5 hPa